sensor_id;sensor_type;location;lat;lon;timestamp;pressure;altitude;pressure_sealevel;temperature;humidity
6425;BME280;12193;42.642;23.384;2023-04-16T00:01:02;93901.47;;;10.51;67.13
6425;BME280;12193;42.642;23.384;2023-04-16T00:03:34;93896.69;;;10.48;67.59
6425;BME280;12193;42.642;23.384;2023-04-16T00:06:04;93893.84;;;10.56;66.85
6425;BME280;12193;42.642;23.384;2023-04-16T03:08:43;93853.78;;;8.67;76.83
6425;BME280;12193;42.642;23.384;2023-04-16T03:11:13;93854.38;;;8.69;76.63
6425;BME280;12193;42.642;23.384;2023-04-16T03:13:43;93861.31;;;8.68;76.60
6425;BME280;12193;42.642;23.384;2023-04-16T03:16:12;93857.19;;;8.54;77.37
6425;BME280;12193;42.642;23.384;2023-04-16T03:18:41;93856.56;;;8.65;76.88
6425;BME280;12193;42.642;23.384;2023-04-16T03:21:10;93851.97;;;8.67;76.49
6425;BME280;12193;42.642;23.384;2023-04-16T03:23:43;93857.72;;;8.69;76.34
6425;BME280;12193;42.642;23.384;2023-04-16T03:26:12;93858.50;;;8.76;75.88
6425;BME280;12193;42.642;23.384;2023-04-16T03:28:41;93857.13;;;8.67;76.20
6425;BME280;12193;42.642;23.384;2023-04-16T03:31:11;93844.53;;;8.84;75.75
6425;BME280;12193;42.642;23.384;2023-04-16T03:33:40;93852.94;;;8.79;76.25
6425;BME280;12193;42.642;23.384;2023-04-16T03:36:09;93850.53;;;8.78;76.30
6425;BME280;12193;42.642;23.384;2023-04-16T03:38:38;93853.00;;;8.53;78.03
6425;BME280;12193;42.642;23.384;2023-04-16T03:41:11;93856.34;;;8.67;78.09
6425;BME280;12193;42.642;23.384;2023-04-16T03:43:40;93859.94;;;8.66;78.12
6425;BME280;12193;42.642;23.384;2023-04-16T03:46:09;93856.56;;;8.65;78.43
6425;BME280;12193;42.642;23.384;2023-04-16T03:48:39;93861.56;;;8.60;78.86
6425;BME280;12193;42.642;23.384;2023-04-16T03:51:08;93854.19;;;8.57;79.20
6425;BME280;12193;42.642;23.384;2023-04-16T03:53:37;93866.19;;;8.45;79.95
6425;BME280;12193;42.642;23.384;2023-04-16T03:56:07;93864.78;;;8.49;79.78
6425;BME280;12193;42.642;23.384;2023-04-16T03:58:39;93863.00;;;8.50;79.40
6425;BME280;12193;42.642;23.384;2023-04-16T04:01:08;93869.53;;;8.59;79.05
6425;BME280;12193;42.642;23.384;2023-04-16T04:03:38;93871.09;;;8.66;78.78
6425;BME280;12193;42.642;23.384;2023-04-16T04:06:07;93868.50;;;8.66;78.82
6425;BME280;12193;42.642;23.384;2023-04-16T04:08:37;93871.09;;;8.66;78.73
6425;BME280;12193;42.642;23.384;2023-04-16T04:11:06;93873.53;;;8.55;79.54
6425;BME280;12193;42.642;23.384;2023-04-16T04:13:39;93876.88;;;8.62;79.28
6425;BME280;12193;42.642;23.384;2023-04-16T04:16:08;93879.09;;;8.58;79.61
6425;BME280;12193;42.642;23.384;2023-04-16T04:18:37;93879.72;;;8.54;80.10
6425;BME280;12193;42.642;23.384;2023-04-16T04:21:07;93880.28;;;8.62;80.14
6425;BME280;12193;42.642;23.384;2023-04-16T04:23:36;93887.50;;;8.54;80.37
6425;BME280;12193;42.642;23.384;2023-04-16T04:26:07;93885.22;;;8.70;79.90
6425;BME280;12193;42.642;23.384;2023-04-16T04:28:39;93884.25;;;8.65;80.68
6425;BME280;12193;42.642;23.384;2023-04-16T04:31:08;93891.97;;;8.78;80.55
6425;BME280;12193;42.642;23.384;2023-04-16T04:33:37;93897.41;;;8.70;81.28
6425;BME280;12193;42.642;23.384;2023-04-16T04:36:06;93900.75;;;8.77;81.39
6425;BME280;12193;42.642;23.384;2023-04-16T04:38:36;93895.72;;;8.95;80.46
6425;BME280;12193;42.642;23.384;2023-04-16T04:41:05;93895.88;;;9.00;80.56
6425;BME280;12193;42.642;23.384;2023-04-16T04:43:35;93897.88;;;8.98;80.74
6425;BME280;12193;42.642;23.384;2023-04-16T04:46:06;93897.31;;;8.96;81.56
6425;BME280;12193;42.642;23.384;2023-04-16T04:48:36;93894.78;;;8.76;83.11
6425;BME280;12193;42.642;23.384;2023-04-16T04:51:05;93907.53;;;8.78;84.22
6425;BME280;12193;42.642;23.384;2023-04-16T04:53:34;93901.34;;;8.79;84.44
6425;BME280;12193;42.642;23.384;2023-04-16T04:56:04;93905.97;;;8.70;84.77
6425;BME280;12193;42.642;23.384;2023-04-16T04:58:34;93900.56;;;8.78;83.33
6425;BME280;12193;42.642;23.384;2023-04-16T05:01:06;93904.56;;;8.74;82.72
6425;BME280;12193;42.642;23.384;2023-04-16T05:03:35;93902.94;;;8.80;82.20
6425;BME280;12193;42.642;23.384;2023-04-16T05:06:05;93902.94;;;8.86;81.31
6425;BME280;12193;42.642;23.384;2023-04-16T05:08:35;93905.66;;;8.98;81.57
6425;BME280;12193;42.642;23.384;2023-04-16T05:11:04;93895.28;;;8.98;80.95
6425;BME280;12193;42.642;23.384;2023-04-16T05:13:33;93898.59;;;9.18;79.98
6425;BME280;12193;42.642;23.384;2023-04-16T05:16:03;93900.03;;;9.14;79.89
6425;BME280;12193;42.642;23.384;2023-04-16T05:18:35;93894.41;;;9.23;79.74
6425;BME280;12193;42.642;23.384;2023-04-16T05:21:05;93893.50;;;9.73;78.52
6425;BME280;12193;42.642;23.384;2023-04-16T05:23:34;93893.41;;;9.86;77.84
6425;BME280;12193;42.642;23.384;2023-04-16T05:26:03;93902.00;;;10.17;76.43
6425;BME280;12193;42.642;23.384;2023-04-16T05:28:32;93902.53;;;9.64;77.78
6425;BME280;12193;42.642;23.384;2023-04-16T05:31:02;93895.88;;;9.43;78.98
6425;BME280;12193;42.642;23.384;2023-04-16T05:33:31;93896.63;;;9.50;78.77
6425;BME280;12193;42.642;23.384;2023-04-16T05:36:03;93903.16;;;9.59;79.19
6425;BME280;12193;42.642;23.384;2023-04-16T05:38:33;93895.47;;;10.08;78.22
6425;BME280;12193;42.642;23.384;2023-04-16T05:41:02;93887.91;;;10.49;76.15
6425;BME280;12193;42.642;23.384;2023-04-16T05:43:31;93889.66;;;10.73;75.51
6425;BME280;12193;42.642;23.384;2023-04-16T05:46:01;93893.34;;;10.83;74.78
6425;BME280;12193;42.642;23.384;2023-04-16T05:48:30;93890.97;;;11.00;73.66
6425;BME280;12193;42.642;23.384;2023-04-16T05:50:59;93899.69;;;11.05;74.05
6425;BME280;12193;42.642;23.384;2023-04-16T05:53:32;93899.84;;;11.10;72.51
6425;BME280;12193;42.642;23.384;2023-04-16T05:56:02;93904.53;;;11.20;71.94
6425;BME280;12193;42.642;23.384;2023-04-16T05:58:31;93895.91;;;11.19;71.95
6425;BME280;12193;42.642;23.384;2023-04-16T06:01:00;93893.25;;;11.08;72.00
6425;BME280;12193;42.642;23.384;2023-04-16T06:03:30;93888.84;;;11.55;70.29
6425;BME280;12193;42.642;23.384;2023-04-16T06:05:59;93892.22;;;11.85;69.63
6425;BME280;12193;42.642;23.384;2023-04-16T06:08:28;93894.19;;;12.01;68.89
6425;BME280;12193;42.642;23.384;2023-04-16T06:11:01;93888.34;;;12.17;67.82
6425;BME280;12193;42.642;23.384;2023-04-16T06:13:30;93889.69;;;12.43;66.83
6425;BME280;12193;42.642;23.384;2023-04-16T06:15:59;93881.75;;;12.49;66.06
6425;BME280;12193;42.642;23.384;2023-04-16T06:18:28;93886.19;;;12.83;65.76
6425;BME280;12193;42.642;23.384;2023-04-16T06:20:57;93893.22;;;12.94;64.59
6425;BME280;12193;42.642;23.384;2023-04-16T06:23:27;93883.78;;;13.04;63.92
6425;BME280;12193;42.642;23.384;2023-04-16T06:26:00;93896.38;;;13.35;62.81
6425;BME280;12193;42.642;23.384;2023-04-16T06:28:29;93888.44;;;13.42;62.46
6425;BME280;12193;42.642;23.384;2023-04-16T06:30:58;93888.44;;;13.42;61.97
6425;BME280;12193;42.642;23.384;2023-04-16T06:33:28;93884.06;;;13.58;61.33
6425;BME280;12193;42.642;23.384;2023-04-16T06:35:57;93886.09;;;13.84;60.53
6425;BME280;12193;42.642;23.384;2023-04-16T06:38:27;93884.69;;;13.93;60.34
6425;BME280;12193;42.642;23.384;2023-04-16T06:40:56;93887.44;;;14.15;58.88
6425;BME280;12193;42.642;23.384;2023-04-16T06:43:29;93879.53;;;13.98;59.26
6425;BME280;12193;42.642;23.384;2023-04-16T06:45:58;93886.72;;;13.91;60.38
6425;BME280;12193;42.642;23.384;2023-04-16T06:48:28;93889.63;;;14.06;59.60
6425;BME280;12193;42.642;23.384;2023-04-16T06:50:57;93892.78;;;14.08;59.81
6425;BME280;12193;42.642;23.384;2023-04-16T06:53:26;93891.88;;;13.31;62.32
6425;BME280;12193;42.642;23.384;2023-04-16T06:55:56;93896.44;;;13.24;62.32
6425;BME280;12193;42.642;23.384;2023-04-16T06:58:28;93890.88;;;13.59;61.98
6425;BME280;12193;42.642;23.384;2023-04-16T07:00:58;93877.91;;;13.64;60.89
6425;BME280;12193;42.642;23.384;2023-04-16T07:03:27;93882.31;;;13.64;60.63
6425;BME280;12193;42.642;23.384;2023-04-16T07:05:56;93878.59;;;13.88;60.29
6425;BME280;12193;42.642;23.384;2023-04-16T07:08:26;93884.53;;;13.55;61.15
6425;BME280;12193;42.642;23.384;2023-04-16T07:10:55;93876.44;;;14.13;60.42
6425;BME280;12193;42.642;23.384;2023-04-16T07:13:25;93885.69;;;14.37;61.17
6425;BME280;12193;42.642;23.384;2023-04-16T07:15:57;93893.38;;;14.27;58.77
6425;BME280;12193;42.642;23.384;2023-04-16T07:18:26;93886.94;;;14.34;59.28
6425;BME280;12193;42.642;23.384;2023-04-16T07:20:56;93886.81;;;14.78;58.89
6425;BME280;12193;42.642;23.384;2023-04-16T07:23:25;93886.69;;;14.85;56.86
6425;BME280;12193;42.642;23.384;2023-04-16T07:25:54;93892.31;;;14.77;58.25
6425;BME280;12193;42.642;23.384;2023-04-16T07:28:24;93893.44;;;14.48;58.63
6425;BME280;12193;42.642;23.384;2023-04-16T07:30:55;93895.09;;;14.87;58.13
6425;BME280;12193;42.642;23.384;2023-04-16T07:33:25;93887.25;;;15.30;55.53
6425;BME280;12193;42.642;23.384;2023-04-16T07:35:55;93887.00;;;15.74;53.63
6425;BME280;12193;42.642;23.384;2023-04-16T07:38:24;93880.06;;;16.16;53.35
6425;BME280;12193;42.642;23.384;2023-04-16T07:40:54;93888.66;;;15.85;52.78
6425;BME280;12193;42.642;23.384;2023-04-16T07:43:23;93886.50;;;15.29;54.43
6425;BME280;12193;42.642;23.384;2023-04-16T07:45:55;93891.88;;;14.31;58.03
6425;BME280;12193;42.642;23.384;2023-04-16T07:48:25;93886.75;;;15.11;55.73
6425;BME280;12193;42.642;23.384;2023-04-16T07:50:54;93886.22;;;14.71;56.72
6425;BME280;12193;42.642;23.384;2023-04-16T07:53:23;93887.22;;;14.87;56.10
6425;BME280;12193;42.642;23.384;2023-04-16T07:55:53;93890.81;;;14.64;56.78
6425;BME280;12193;42.642;23.384;2023-04-16T07:58:22;93884.50;;;15.20;55.58
6425;BME280;12193;42.642;23.384;2023-04-16T08:00:52;93880.59;;;15.91;53.26
6425;BME280;12193;42.642;23.384;2023-04-16T08:03:24;93876.03;;;17.12;49.66
6425;BME280;12193;42.642;23.384;2023-04-16T08:05:53;93881.16;;;17.39;49.06
6425;BME280;12193;42.642;23.384;2023-04-16T08:08:23;93875.41;;;16.95;49.32
6425;BME280;12193;42.642;23.384;2023-04-16T08:10:53;93880.16;;;17.55;48.53
6425;BME280;12193;42.642;23.384;2023-04-16T08:13:24;93877.28;;;17.00;49.24
6425;BME280;12193;42.642;23.384;2023-04-16T08:15:53;93874.22;;;17.84;46.80
6425;BME280;12193;42.642;23.384;2023-04-16T08:18:25;93868.63;;;17.61;47.91
6425;BME280;12193;42.642;23.384;2023-04-16T08:20:55;93869.69;;;16.62;50.87
6425;BME280;12193;42.642;23.384;2023-04-16T08:23:24;93870.56;;;16.72;49.84
6425;BME280;12193;42.642;23.384;2023-04-16T08:25:54;93868.25;;;18.23;46.34
6425;BME280;12193;42.642;23.384;2023-04-16T08:28:23;93853.69;;;19.20;44.30
6425;BME280;12193;42.642;23.384;2023-04-16T08:30:53;93858.53;;;18.29;45.48
6425;BME280;12193;42.642;23.384;2023-04-16T08:33:25;93855.56;;;19.00;44.63
6425;BME280;12193;42.642;23.384;2023-04-16T08:35:55;93867.09;;;17.74;47.87
6425;BME280;12193;42.642;23.384;2023-04-16T08:38:24;93859.22;;;17.79;48.38
6425;BME280;12193;42.642;23.384;2023-04-16T08:40:54;93848.47;;;19.69;44.13
6425;BME280;12193;42.642;23.384;2023-04-16T08:43:24;93849.75;;;20.58;41.58
6425;BME280;12193;42.642;23.384;2023-04-16T08:45:55;93843.47;;;20.49;41.06
6425;BME280;12193;42.642;23.384;2023-04-16T08:48:28;93852.66;;;20.23;42.28
6425;BME280;12193;42.642;23.384;2023-04-16T08:51:00;93849.88;;;20.04;41.74
6425;BME280;12193;42.642;23.384;2023-04-16T08:53:34;93839.28;;;20.48;40.79
6425;BME280;12193;42.642;23.384;2023-04-16T08:56:05;93840.16;;;20.38;41.76
6425;BME280;12193;42.642;23.384;2023-04-16T08:58:38;93838.84;;;20.31;41.09
6425;BME280;12193;42.642;23.384;2023-04-16T09:01:08;93836.16;;;19.49;44.16
6425;BME280;12193;42.642;23.384;2023-04-16T09:03:41;93833.06;;;19.86;42.38
6425;BME280;12193;42.642;23.384;2023-04-16T09:06:13;93832.94;;;20.10;42.04
6425;BME280;12193;42.642;23.384;2023-04-16T09:08:44;93830.13;;;18.41;44.77
6425;BME280;12193;42.642;23.384;2023-04-16T09:11:16;93827.97;;;18.18;45.83
6425;BME280;12193;42.642;23.384;2023-04-16T09:13:46;93821.72;;;19.42;43.15
6425;BME280;12193;42.642;23.384;2023-04-16T09:16:16;93820.06;;;20.99;39.52
6425;BME280;12193;42.642;23.384;2023-04-16T09:18:48;93821.59;;;20.43;40.71
6425;BME280;12193;42.642;23.384;2023-04-16T09:21:18;93823.41;;;21.28;40.02
6425;BME280;12193;42.642;23.384;2023-04-16T09:23:49;93818.22;;;21.65;38.02
6425;BME280;12193;42.642;23.384;2023-04-16T09:26:21;93815.53;;;20.99;38.95
6425;BME280;12193;42.642;23.384;2023-04-16T09:28:51;93814.94;;;21.31;38.79
6425;BME280;12193;42.642;23.384;2023-04-16T09:31:20;93817.25;;;21.98;38.85
6425;BME280;12193;42.642;23.384;2023-04-16T09:34:07;93818.81;;;21.15;39.12
6425;BME280;12193;42.642;23.384;2023-04-16T09:36:37;93830.09;;;19.54;42.11
6425;BME280;12193;42.642;23.384;2023-04-16T09:39:06;93821.47;;;19.38;43.53
6425;BME280;12193;42.642;23.384;2023-04-16T09:41:46;93820.34;;;20.02;41.79
6425;BME280;12193;42.642;23.384;2023-04-16T09:44:16;93812.72;;;20.63;41.34
6425;BME280;12193;42.642;23.384;2023-04-16T09:46:45;93810.34;;;20.61;41.23
6425;BME280;12193;42.642;23.384;2023-04-16T09:49:17;93801.09;;;20.35;41.89
6425;BME280;12193;42.642;23.384;2023-04-16T09:51:48;93805.81;;;20.67;40.94
6425;BME280;12193;42.642;23.384;2023-04-16T09:54:20;93806.59;;;21.84;38.25
6425;BME280;12193;42.642;23.384;2023-04-16T09:56:49;93798.44;;;21.39;39.38
6425;BME280;12193;42.642;23.384;2023-04-16T09:59:19;93802.38;;;20.95;39.81
6425;BME280;12193;42.642;23.384;2023-04-16T10:01:49;93796.56;;;21.63;38.26
6425;BME280;12193;42.642;23.384;2023-04-16T10:04:21;93799.31;;;21.53;38.30
6425;BME280;12193;42.642;23.384;2023-04-16T10:07:02;93796.03;;;21.19;38.55
6425;BME280;12193;42.642;23.384;2023-04-16T10:09:36;93791.84;;;19.56;40.90
6425;BME280;12193;42.642;23.384;2023-04-16T10:12:06;93791.19;;;19.31;42.27
6425;BME280;12193;42.642;23.384;2023-04-16T10:14:35;93790.09;;;18.64;42.98
6425;BME280;12193;42.642;23.384;2023-04-16T10:17:04;93790.38;;;18.37;43.78
6425;BME280;12193;42.642;23.384;2023-04-16T10:19:37;93778.53;;;18.25;43.60
6425;BME280;12193;42.642;23.384;2023-04-16T10:22:08;93783.56;;;18.31;43.95
6425;BME280;12193;42.642;23.384;2023-04-16T10:24:38;93776.06;;;18.78;44.36
6425;BME280;12193;42.642;23.384;2023-04-16T10:27:09;93782.31;;;19.02;42.31
6425;BME280;12193;42.642;23.384;2023-04-16T10:29:39;93773.81;;;19.25;42.67
6425;BME280;12193;42.642;23.384;2023-04-16T10:32:08;93771.53;;;19.95;41.53
6425;BME280;12193;42.642;23.384;2023-04-16T10:34:41;93768.56;;;20.40;41.19
6425;BME280;12193;42.642;23.384;2023-04-16T10:37:11;93763.56;;;20.67;39.64
6425;BME280;12193;42.642;23.384;2023-04-16T10:39:40;93762.69;;;20.48;39.46
6425;BME280;12193;42.642;23.384;2023-04-16T10:42:10;93768.19;;;21.03;38.55
6425;BME280;12193;42.642;23.384;2023-04-16T10:44:40;93763.84;;;21.59;37.33
6425;BME280;12193;42.642;23.384;2023-04-16T10:47:10;93759.72;;;22.03;36.26
6425;BME280;12193;42.642;23.384;2023-04-16T10:49:43;93761.91;;;22.65;35.77
6425;BME280;12193;42.642;23.384;2023-04-16T10:52:15;93772.47;;;21.83;36.47
6425;BME280;12193;42.642;23.384;2023-04-16T10:54:46;93760.56;;;22.17;35.40
6425;BME280;12193;42.642;23.384;2023-04-16T10:57:18;93756.41;;;22.75;36.24
6425;BME280;12193;42.642;23.384;2023-04-16T10:59:48;93763.28;;;22.76;34.98
6425;BME280;12193;42.642;23.384;2023-04-16T11:02:17;93764.22;;;22.02;35.55
6425;BME280;12193;42.642;23.384;2023-04-16T11:04:50;93752.41;;;22.91;34.67
6425;BME280;12193;42.642;23.384;2023-04-16T11:07:20;93750.63;;;22.86;34.58
6425;BME280;12193;42.642;23.384;2023-04-16T11:09:52;93752.44;;;21.95;35.84
6425;BME280;12193;42.642;23.384;2023-04-16T11:12:23;93750.03;;;21.38;37.07
6425;BME280;12193;42.642;23.384;2023-04-16T11:14:58;93743.81;;;20.88;37.92
6425;BME280;12193;42.642;23.384;2023-04-16T11:17:30;93749.00;;;20.69;38.22
6425;BME280;12193;42.642;23.384;2023-04-16T11:20:04;93743.84;;;19.59;40.30
6425;BME280;12193;42.642;23.384;2023-04-16T11:22:34;93741.84;;;20.98;38.06
6425;BME280;12193;42.642;23.384;2023-04-16T11:25:05;93737.72;;;21.71;37.10
6425;BME280;12193;42.642;23.384;2023-04-16T11:27:34;93733.25;;;22.94;34.27
6425;BME280;12193;42.642;23.384;2023-04-16T11:30:05;93728.91;;;21.75;36.45
6425;BME280;12193;42.642;23.384;2023-04-16T11:32:36;93725.47;;;20.44;38.60
6425;BME280;12193;42.642;23.384;2023-04-16T11:35:15;93726.13;;;20.60;38.93
6425;BME280;12193;42.642;23.384;2023-04-16T11:37:46;93717.44;;;20.31;40.76
6425;BME280;12193;42.642;23.384;2023-04-16T11:40:16;93719.22;;;19.74;41.59
6425;BME280;12193;42.642;23.384;2023-04-16T11:42:45;93710.34;;;19.98;41.05
6425;BME280;12193;42.642;23.384;2023-04-16T11:45:14;93712.09;;;19.36;41.19
6425;BME280;12193;42.642;23.384;2023-04-16T11:47:45;93708.34;;;18.93;41.92
6425;BME280;12193;42.642;23.384;2023-04-16T11:50:20;93708.81;;;19.54;41.35
6425;BME280;12193;42.642;23.384;2023-04-16T11:52:51;93698.19;;;20.02;40.58
6425;BME280;12193;42.642;23.384;2023-04-16T11:55:22;93694.84;;;19.87;39.40
6425;BME280;12193;42.642;23.384;2023-04-16T11:57:51;93695.28;;;19.65;40.57
6425;BME280;12193;42.642;23.384;2023-04-16T12:00:21;93692.84;;;19.35;41.50
6425;BME280;12193;42.642;23.384;2023-04-16T12:02:51;93694.97;;;19.33;41.30
6425;BME280;12193;42.642;23.384;2023-04-16T12:05:31;93681.03;;;19.33;41.07
6425;BME280;12193;42.642;23.384;2023-04-16T12:08:01;93683.84;;;18.93;41.57
6425;BME280;12193;42.642;23.384;2023-04-16T12:10:32;93679.28;;;19.13;41.94
6425;BME280;12193;42.642;23.384;2023-04-16T12:13:10;93676.47;;;19.43;41.05
6425;BME280;12193;42.642;23.384;2023-04-16T12:15:43;93667.41;;;19.54;41.07
6425;BME280;12193;42.642;23.384;2023-04-16T12:18:13;93671.66;;;19.50;41.57
6425;BME280;12193;42.642;23.384;2023-04-16T12:20:45;93664.84;;;18.96;42.20
6425;BME280;12193;42.642;23.384;2023-04-16T12:23:22;93659.00;;;18.51;43.13
6425;BME280;12193;42.642;23.384;2023-04-16T12:25:52;93664.28;;;18.46;43.67
6425;BME280;12193;42.642;23.384;2023-04-16T12:28:29;93666.59;;;18.62;43.31
6425;BME280;12193;42.642;23.384;2023-04-16T12:30:58;93658.31;;;18.88;43.68
6425;BME280;12193;42.642;23.384;2023-04-16T12:33:28;93654.31;;;18.96;43.68
6425;BME280;12193;42.642;23.384;2023-04-16T12:36:00;93650.16;;;18.85;43.61
6425;BME280;12193;42.642;23.384;2023-04-16T12:38:29;93652.41;;;18.58;43.98
6425;BME280;12193;42.642;23.384;2023-04-16T12:40:59;93649.09;;;18.28;45.02
6425;BME280;12193;42.642;23.384;2023-04-16T12:43:30;93649.31;;;18.36;45.14
6425;BME280;12193;42.642;23.384;2023-04-16T12:45:59;93647.19;;;18.48;45.34
6425;BME280;12193;42.642;23.384;2023-04-16T12:48:29;93650.34;;;18.50;45.15
6425;BME280;12193;42.642;23.384;2023-04-16T12:51:02;93646.97;;;18.30;46.07
6425;BME280;12193;42.642;23.384;2023-04-16T12:53:31;93642.78;;;18.19;45.98
6425;BME280;12193;42.642;23.384;2023-04-16T12:56:01;93647.00;;;18.15;46.51
6425;BME280;12193;42.642;23.384;2023-04-16T12:58:30;93636.19;;;18.16;46.65
6425;BME280;12193;42.642;23.384;2023-04-16T13:00:59;93636.75;;;18.08;47.41
6425;BME280;12193;42.642;23.384;2023-04-16T13:03:29;93633.81;;;18.30;47.06
6425;BME280;12193;42.642;23.384;2023-04-16T13:06:04;93631.66;;;18.47;46.70
6425;BME280;12193;42.642;23.384;2023-04-16T13:08:33;93619.06;;;18.44;46.81
6425;BME280;12193;42.642;23.384;2023-04-16T13:11:03;93619.59;;;18.41;47.31
6425;BME280;12193;42.642;23.384;2023-04-16T13:13:32;93621.41;;;18.40;46.96
6425;BME280;12193;42.642;23.384;2023-04-16T13:16:01;93618.31;;;18.33;47.87
6425;BME280;12193;42.642;23.384;2023-04-16T13:18:34;93626.28;;;17.88;48.75
6425;BME280;12193;42.642;23.384;2023-04-16T13:21:08;93613.69;;;17.71;49.84
6425;BME280;12193;42.642;23.384;2023-04-16T13:23:37;93621.31;;;17.67;49.80
6425;BME280;12193;42.642;23.384;2023-04-16T13:26:07;93622.38;;;17.61;49.94
6425;BME280;12193;42.642;23.384;2023-04-16T13:28:38;93619.75;;;17.46;49.66
6425;BME280;12193;42.642;23.384;2023-04-16T13:31:07;93621.31;;;17.47;49.92
6425;BME280;12193;42.642;23.384;2023-04-16T13:33:37;93625.28;;;17.50;49.56
6425;BME280;12193;42.642;23.384;2023-04-16T13:36:09;93613.94;;;17.29;48.89
6425;BME280;12193;42.642;23.384;2023-04-16T13:38:39;93616.59;;;17.19;49.65
6425;BME280;12193;42.642;23.384;2023-04-16T13:41:08;93623.44;;;17.30;49.78
6425;BME280;12193;42.642;23.384;2023-04-16T13:43:38;93619.78;;;17.41;49.40
6425;BME280;12193;42.642;23.384;2023-04-16T13:46:07;93618.41;;;17.19;49.81
6425;BME280;12193;42.642;23.384;2023-04-16T13:48:37;93619.44;;;17.13;50.35
6425;BME280;12193;42.642;23.384;2023-04-16T13:51:09;93610.50;;;16.94;51.68
6425;BME280;12193;42.642;23.384;2023-04-16T13:53:40;93614.41;;;16.71;53.12
6425;BME280;12193;42.642;23.384;2023-04-16T13:56:09;93622.53;;;16.75;53.78
6425;BME280;12193;42.642;23.384;2023-04-16T13:58:39;93628.84;;;16.69;53.89
6425;BME280;12193;42.642;23.384;2023-04-16T14:01:08;93635.34;;;16.57;54.85
6425;BME280;12193;42.642;23.384;2023-04-16T14:03:38;93637.47;;;16.65;54.54
6425;BME280;12193;42.642;23.384;2023-04-16T14:06:11;93648.75;;;16.60;55.14
6425;BME280;12193;42.642;23.384;2023-04-16T14:08:43;93651.63;;;16.64;55.27
6425;BME280;12193;42.642;23.384;2023-04-16T14:11:12;93659.78;;;16.72;55.81
6425;BME280;12193;42.642;23.384;2023-04-16T14:13:42;93663.44;;;16.61;54.94
6425;BME280;12193;42.642;23.384;2023-04-16T14:16:11;93662.28;;;16.37;55.40
6425;BME280;12193;42.642;23.384;2023-04-16T14:18:40;93669.25;;;16.17;57.11
6425;BME280;12193;42.642;23.384;2023-04-16T14:21:13;93666.91;;;16.20;61.37
6425;BME280;12193;42.642;23.384;2023-04-16T14:23:42;93659.81;;;16.21;63.49
6425;BME280;12193;42.642;23.384;2023-04-16T14:26:11;93653.97;;;16.04;64.73
6425;BME280;12193;42.642;23.384;2023-04-16T14:28:41;93656.06;;;16.07;64.54
6425;BME280;12193;42.642;23.384;2023-04-16T14:31:10;93655.47;;;15.90;63.93
6425;BME280;12193;42.642;23.384;2023-04-16T14:33:39;93658.31;;;15.83;63.96
6425;BME280;12193;42.642;23.384;2023-04-16T14:36:12;93656.72;;;15.82;64.08
6425;BME280;12193;42.642;23.384;2023-04-16T14:38:41;93676.13;;;15.50;66.77
6425;BME280;12193;42.642;23.384;2023-04-16T14:41:11;93677.47;;;15.53;68.52
6425;BME280;12193;42.642;23.384;2023-04-16T14:43:40;93675.34;;;15.50;69.93
6425;BME280;12193;42.642;23.384;2023-04-16T14:46:10;93677.63;;;15.41;71.38
6425;BME280;12193;42.642;23.384;2023-04-16T14:48:42;93682.91;;;15.46;72.85
6425;BME280;12193;42.642;23.384;2023-04-16T14:51:14;93693.88;;;15.43;73.84
6425;BME280;12193;42.642;23.384;2023-04-16T14:53:44;93685.34;;;15.26;75.59
6425;BME280;12193;42.642;23.384;2023-04-16T14:56:13;93687.56;;;15.13;76.51
6425;BME280;12193;42.642;23.384;2023-04-16T14:58:42;93693.81;;;14.85;77.21
6425;BME280;12193;42.642;23.384;2023-04-16T15:01:12;93696.84;;;14.99;76.30
6425;BME280;12193;42.642;23.384;2023-04-16T15:03:42;93696.34;;;15.02;75.10
6425;BME280;12193;42.642;23.384;2023-04-16T15:06:14;93699.66;;;15.19;74.52
6425;BME280;12193;42.642;23.384;2023-04-16T15:08:44;93701.44;;;15.13;75.88
6425;BME280;12193;42.642;23.384;2023-04-16T15:11:13;93714.53;;;15.13;77.63
6425;BME280;12193;42.642;23.384;2023-04-16T15:13:42;93722.97;;;15.20;77.56
6425;BME280;12193;42.642;23.384;2023-04-16T15:16:12;93724.91;;;15.03;79.59
6425;BME280;12193;42.642;23.384;2023-04-16T15:18:41;93728.50;;;14.97;80.93
6425;BME280;12193;42.642;23.384;2023-04-16T15:21:11;93728.53;;;15.02;81.14
6425;BME280;12193;42.642;23.384;2023-04-16T15:23:43;93723.72;;;15.16;81.49
6425;BME280;12193;42.642;23.384;2023-04-16T15:26:13;93731.97;;;15.03;80.24
6425;BME280;12193;42.642;23.384;2023-04-16T15:28:42;93730.47;;;14.85;80.69
6425;BME280;12193;42.642;23.384;2023-04-16T15:31:11;93732.38;;;14.95;80.72
6425;BME280;12193;42.642;23.384;2023-04-16T15:33:40;93740.63;;;14.82;80.73
6425;BME280;12193;42.642;23.384;2023-04-16T15:36:10;93735.97;;;14.89;80.37
6425;BME280;12193;42.642;23.384;2023-04-16T15:38:42;93732.72;;;14.77;80.32
6425;BME280;12193;42.642;23.384;2023-04-16T15:41:12;93732.84;;;14.65;80.95
6425;BME280;12193;42.642;23.384;2023-04-16T15:43:41;93734.06;;;14.58;81.48
6425;BME280;12193;42.642;23.384;2023-04-16T15:46:11;93741.50;;;14.66;81.10
6425;BME280;12193;42.642;23.384;2023-04-16T15:48:40;93740.97;;;14.69;80.97
6425;BME280;12193;42.642;23.384;2023-04-16T15:51:10;93744.88;;;14.66;81.92
6425;BME280;12193;42.642;23.384;2023-04-16T15:53:42;93754.06;;;14.48;83.16
6425;BME280;12193;42.642;23.384;2023-04-16T15:56:13;93748.69;;;14.38;84.16
6425;BME280;12193;42.642;23.384;2023-04-16T15:58:42;93755.63;;;14.11;85.54
6425;BME280;12193;42.642;23.384;2023-04-16T16:01:12;93750.25;;;14.17;85.43
6425;BME280;12193;42.642;23.384;2023-04-16T16:03:41;93744.00;;;14.18;85.28
6425;BME280;12193;42.642;23.384;2023-04-16T16:06:11;93745.66;;;14.24;85.08
6425;BME280;12193;42.642;23.384;2023-04-16T16:08:45;93742.00;;;14.09;86.29
6425;BME280;12193;42.642;23.384;2023-04-16T16:11:15;93739.19;;;13.77;88.10
6425;BME280;12193;42.642;23.384;2023-04-16T16:13:45;93747.56;;;13.63;89.30
6425;BME280;12193;42.642;23.384;2023-04-16T16:16:14;93741.84;;;13.49;90.18
6425;BME280;12193;42.642;23.384;2023-04-16T16:18:43;93744.88;;;13.58;90.00